Time;durP1;ratioP1;P1;durP2;ratioP2;P2;SDS_P1;SDS_P2;PMS_P1;PMS_P2;Temp;Humidity;BMP_temperature;BMP_pressure;BME280_temperature;BME280_humidity;BME280_pressure;Samples;Min_cycle;Max_cycle;Signal;HPM_P1;HPM_P2
2023/11/10 00:02:02;;;;;;;4.50;2.80;;;9.50;1.00;;;;;;5147381;27;20459;-72
2023/11/10 00:04:29;;;;;;;2.50;2.40;;;9.50;1.00;;;;;;5146235;27;20460;-74
2023/11/10 00:06:56;;;;;;;2.77;2.57;;;9.50;1.00;;;;;;5137608;27;20937;-73
2023/11/10 00:09:22;;;;;;;4.90;2.67;;;9.50;1.00;;;;;;5125607;27;20471;-74
2023/11/10 00:11:49;;;;;;;5.13;2.90;;;9.40;1.00;;;;;;5145613;27;21212;-74
2023/11/10 00:14:18;;;;;;;4.03;2.77;;;9.40;1.00;;;;;;5139054;27;20514;-74
2023/11/10 00:16:45;;;;;;;2.80;2.60;;;9.40;1.00;;;;;;5123136;27;20457;-72
2023/11/10 00:19:13;;;;;;;21.57;15.80;;;9.30;1.00;;;;;;5123942;27;20479;-72
2023/11/10 00:21:40;;;;;;;5.50;5.10;;;9.30;1.00;;;;;;5127169;27;20444;-71
2023/11/10 00:24:07;;;;;;;2.87;2.67;;;9.30;1.00;;;;;;5127711;27;20459;-72
2023/11/10 00:26:36;;;;;;;3.80;3.50;;;9.30;1.00;;;;;;5125659;27;20956;-71
2023/11/10 00:29:03;;;;;;;3.03;2.77;;;9.30;1.00;;;;;;5115664;27;20472;-73
2023/11/10 00:31:33;;;;;;;3.10;2.80;;;9.20;1.00;;;;;;5121395;27;20858;-73
2023/11/10 00:34:00;;;;;;;3.70;2.77;;;9.20;1.00;;;;;;5126356;27;20514;-73
2023/11/10 00:36:27;;;;;;;3.40;3.17;;;9.20;1.00;;;;;;5123264;27;20461;-69
2023/11/10 00:38:54;;;;;;;2.97;2.70;;;9.20;1.00;;;;;;5129860;27;20984;-70
2023/11/10 00:41:21;;;;;;;3.40;3.03;;;9.20;1.00;;;;;;5126386;27;20467;-68
2023/11/10 00:43:49;;;;;;;3.40;2.77;;;9.10;1.00;;;;;;5125781;27;20459;-69
2023/11/10 00:46:17;;;;;;;2.97;2.60;;;9.10;1.00;;;;;;5126630;27;20481;-68
2023/11/10 00:48:45;;;;;;;3.90;2.37;;;9.10;1.00;;;;;;5125670;27;20495;-68
2023/11/10 00:51:12;;;;;;;3.93;2.60;;;9.10;1.00;;;;;;5123650;27;20454;-67
2023/11/10 00:53:39;;;;;;;3.40;2.40;;;9.00;1.00;;;;;;5125852;27;20544;-71
2023/11/10 00:56:06;;;;;;;2.70;2.50;;;9.00;1.00;;;;;;5142897;27;20547;-67
2023/11/10 00:58:33;;;;;;;3.50;2.47;;;8.90;1.00;;;;;;5124427;27;20983;-73
2023/11/10 01:01:01;;;;;;;3.77;3.10;;;8.90;1.00;;;;;;5126616;27;20463;-70
2023/11/10 01:03:28;;;;;;;3.67;2.63;;;9.00;1.00;;;;;;5128568;27;20611;-69
2023/11/10 01:05:58;;;;;;;3.40;2.50;;;8.90;1.00;;;;;;5142802;27;20536;-71
2023/11/10 01:08:25;;;;;;;3.00;2.80;;;8.90;1.00;;;;;;5135697;27;20903;-73
2023/11/10 01:10:52;;;;;;;3.03;2.83;;;8.80;1.00;;;;;;5133355;27;21242;-70
2023/11/10 01:13:19;;;;;;;2.93;2.37;;;8.90;1.00;;;;;;5128066;27;21039;-67
2023/11/10 01:15:45;;;;;;;5.20;2.47;;;8.90;1.00;;;;;;5120538;27;20457;-68
2023/11/10 01:18:12;;;;;;;3.50;3.07;;;8.80;1.00;;;;;;5127098;27;20983;-68
2023/11/10 01:20:39;;;;;;;2.80;2.60;;;8.80;1.00;;;;;;5123999;27;20441;-70
2023/11/10 01:23:08;;;;;;;3.40;2.67;;;8.70;1.00;;;;;;5125275;27;20454;-71
2023/11/10 01:25:35;;;;;;;2.70;2.50;;;8.70;1.00;;;;;;5122780;27;20465;-68
2023/11/10 01:28:02;;;;;;;2.50;2.30;;;8.70;1.00;;;;;;5123148;27;20962;-69
2023/11/10 01:30:29;;;;;;;2.53;2.33;;;8.60;1.00;;;;;;5125693;27;20441;-68
2023/11/10 01:32:56;;;;;;;2.60;2.40;;;8.60;1.00;;;;;;5125112;27;21059;-73
2023/11/10 01:35:23;;;;;;;2.47;2.27;;;8.60;1.00;;;;;;5123879;27;20460;-68
2023/11/10 01:37:50;;;;;;;2.40;2.20;;;8.60;1.00;;;;;;5144526;27;20491;-67
2023/11/10 01:40:20;;;;;;;4.40;2.57;;;8.60;1.00;;;;;;5137433;27;20452;-69
2023/11/10 01:42:47;;;;;;;3.90;2.50;;;8.60;1.00;;;;;;5146356;27;20475;-68
2023/11/10 01:45:15;;;;;;;2.30;2.00;;;8.60;1.00;;;;;;5128449;27;20464;-71
2023/11/10 01:47:45;;;;;;;2.90;2.40;;;8.60;1.00;;;;;;5137192;27;20452;-69
2023/11/10 01:50:13;;;;;;;2.93;2.40;;;8.60;1.00;;;;;;5128586;27;20444;-70
2023/11/10 01:52:42;;;;;;;3.20;2.40;;;8.50;1.00;;;;;;5119080;27;20450;-71
2023/11/10 01:55:11;;;;;;;3.53;2.17;;;8.50;1.00;;;;;;5125632;27;20464;-68
2023/11/10 01:57:40;;;;;;;2.03;1.93;;;8.50;1.00;;;;;;5124988;27;20490;-71
2023/11/10 02:00:08;;;;;;;2.50;2.30;;;8.50;1.00;;;;;;5125016;27;20502;-68
2023/11/10 02:02:35;;;;;;;2.80;1.90;;;8.60;1.00;;;;;;5114414;27;20459;-68
2023/11/10 02:05:02;;;;;;;4.27;1.93;;;8.50;1.00;;;;;;5129693;27;20469;-68
2023/11/10 02:07:29;;;;;;;2.70;2.20;;;8.50;1.00;;;;;;5126940;27;20483;-68
2023/11/10 02:09:56;;;;;;;4.00;2.67;;;8.50;1.00;;;;;;5147516;27;20451;-68
2023/11/10 02:12:23;;;;;;;2.43;2.17;;;8.60;1.00;;;;;;5145290;27;20490;-68
2023/11/10 02:14:51;;;;;;;3.57;2.10;;;8.60;1.00;;;;;;5146204;27;20539;-68
2023/11/10 02:17:18;;;;;;;2.53;2.00;;;8.50;1.00;;;;;;5147870;27;20570;-72
2023/11/10 02:19:45;;;;;;;1.80;1.70;;;8.50;1.00;;;;;;5146968;27;20595;-67
2023/11/10 02:22:12;;;;;;;3.33;2.10;;;8.50;1.00;;;;;;5145653;27;20452;-69
2023/11/10 02:24:41;;;;;;;2.07;1.70;;;8.50;1.00;;;;;;5142739;27;20456;-70
2023/11/10 02:27:09;;;;;;;3.10;2.00;;;8.50;1.00;;;;;;5149973;27;20958;-69
2023/11/10 02:29:39;;;;;;;2.50;1.93;;;8.50;1.00;;;;;;5145251;27;21572;-69
2023/11/10 02:32:07;;;;;;;5.70;2.43;;;8.50;1.00;;;;;;5145289;27;20470;-71
2023/11/10 02:34:34;;;;;;;1.80;1.70;;;8.40;1.00;;;;;;5141940;27;20453;-70
2023/11/10 02:37:02;;;;;;;5.60;2.03;;;8.40;1.00;;;;;;5146063;27;20541;-68
2023/11/10 02:39:29;;;;;;;2.30;2.10;;;8.50;1.00;;;;;;5146231;27;20462;-68
2023/11/10 02:41:56;;;;;;;1.70;1.30;;;8.40;1.00;;;;;;5127062;27;20545;-69
2023/11/10 02:44:26;;;;;;;3.80;1.67;;;8.50;1.00;;;;;;5143626;27;20863;-69
2023/11/10 02:46:52;;;;;;;1.93;1.60;;;8.40;1.00;;;;;;5116551;27;20490;-68
2023/11/10 02:49:20;;;;;;;3.67;2.20;;;8.40;1.00;;;;;;5125749;27;21535;-71
2023/11/10 02:51:47;;;;;;;5.33;2.20;;;8.40;1.00;;;;;;5133671;27;20965;-71
2023/11/10 02:54:14;;;;;;;2.70;1.73;;;8.40;1.00;;;;;;5148304;27;20448;-69
2023/11/10 02:56:41;;;;;;;1.93;1.73;;;8.40;1.00;;;;;;5138112;27;20459;-77
2023/11/10 02:59:08;;;;;;;1.70;1.60;;;8.40;1.00;;;;;;5141503;27;20562;-77
2023/11/10 03:01:37;;;;;;;3.03;1.73;;;8.40;1.00;;;;;;5147147;27;21007;-74
2023/11/10 03:04:04;;;;;;;3.30;2.00;;;8.40;1.00;;;;;;5147110;27;20484;-71
2023/11/10 03:06:31;;;;;;;3.20;1.73;;;8.40;1.00;;;;;;5147071;27;20521;-76
2023/11/10 03:08:58;;;;;;;3.30;1.90;;;8.30;1.00;;;;;;5147260;27;20451;-77
2023/11/10 03:11:25;;;;;;;3.03;2.47;;;8.30;1.00;;;;;;5148122;27;20543;-77
2023/11/10 03:13:54;;;;;;;3.20;2.20;;;8.30;1.00;;;;;;5143996;27;20500;-77
2023/11/10 03:16:22;;;;;;;3.50;1.97;;;8.20;1.00;;;;;;5146454;27;20464;-78
2023/11/10 03:18:52;;;;;;;2.60;1.93;;;8.20;1.00;;;;;;5137775;27;21793;-77
2023/11/10 03:21:19;;;;;;;2.60;1.80;;;8.20;1.00;;;;;;5127653;27;20463;-78
2023/11/10 03:23:46;;;;;;;3.23;1.80;;;8.10;1.00;;;;;;5127804;27;20441;-77
2023/11/10 03:26:13;;;;;;;2.90;1.63;;;8.10;1.00;;;;;;5130008;27;20529;-72
2023/11/10 03:28:41;;;;;;;2.30;1.77;;;8.00;1.00;;;;;;5128466;27;20544;-78
2023/11/10 03:31:08;;;;;;;3.87;2.67;;;8.00;1.00;;;;;;5130882;27;20250;-77
2023/11/10 03:33:35;;;;;;;2.50;1.70;;;8.10;1.00;;;;;;5117711;27;20501;-75
2023/11/10 03:36:04;;;;;;;2.57;1.50;;;8.00;1.00;;;;;;5126887;27;20620;-78
2023/11/10 03:38:31;;;;;;;3.53;2.40;;;8.00;1.00;;;;;;5126054;27;20531;-79
2023/11/10 03:40:59;;;;;;;2.03;1.70;;;8.00;1.00;;;;;;5142550;27;21001;-78
2023/11/10 03:43:26;;;;;;;2.93;2.20;;;8.00;1.00;;;;;;5123075;27;20535;-76
2023/11/10 03:45:53;;;;;;;2.63;2.07;;;8.00;1.00;;;;;;5143116;27;20463;-77
2023/11/10 03:48:20;;;;;;;4.17;2.20;;;8.00;1.00;;;;;;5124487;27;20475;-77
2023/11/10 03:50:47;;;;;;;5.83;2.60;;;8.00;1.00;;;;;;5149787;27;20460;-77
2023/11/10 03:53:16;;;;;;;4.07;2.00;;;8.00;1.00;;;;;;5137862;27;20469;-77
2023/11/10 03:55:43;;;;;;;3.60;1.93;;;7.90;1.00;;;;;;5126480;27;20544;-78
2023/11/10 03:58:10;;;;;;;3.50;1.90;;;7.90;1.00;;;;;;5126156;27;20445;-78
2023/11/10 04:00:37;;;;;;;2.63;1.73;;;7.90;1.00;;;;;;5143422;27;20491;-75
2023/11/10 04:03:05;;;;;;;5.73;2.20;;;8.00;1.00;;;;;;5149219;27;20958;-77
2023/11/10 04:05:32;;;;;;;2.93;2.43;;;8.00;1.00;;;;;;5147055;27;20463;-75
2023/11/10 04:07:59;;;;;;;3.00;2.20;;;8.00;1.00;;;;;;5146385;27;21193;-71
2023/11/10 04:10:28;;;;;;;4.17;2.10;;;8.00;1.00;;;;;;5148129;27;21336;-72
2023/11/10 04:12:56;;;;;;;2.07;1.87;;;8.00;1.00;;;;;;5140702;27;20477;-71
2023/11/10 04:15:23;;;;;;;3.90;1.83;;;7.90;1.00;;;;;;5138382;27;21062;-73
2023/11/10 04:17:50;;;;;;;4.13;2.00;;;7.90;1.00;;;;;;5126207;27;20453;-72
2023/11/10 04:20:17;;;;;;;3.00;2.37;;;7.90;1.00;;;;;;5113638;27;20538;-72
2023/11/10 04:22:44;;;;;;;3.40;1.90;;;7.90;1.00;;;;;;5125383;27;20458;-72
2023/11/10 04:25:11;;;;;;;2.80;2.00;;;7.90;1.00;;;;;;5128899;27;20465;-72
2023/11/10 04:27:41;;;;;;;3.30;2.00;;;7.90;1.00;;;;;;5126755;27;21025;-71
2023/11/10 04:30:09;;;;;;;3.37;2.03;;;7.90;1.00;;;;;;5123897;27;20461;-73
2023/11/10 04:32:37;;;;;;;3.50;2.60;;;8.00;1.00;;;;;;5127196;27;20449;-73
2023/11/10 04:35:04;;;;;;;2.70;2.20;;;8.00;1.00;;;;;;5126023;27;20551;-72
2023/11/10 04:37:31;;;;;;;4.10;2.00;;;8.00;1.00;;;;;;5127749;27;20464;-72
2023/11/10 04:39:58;;;;;;;2.93;2.33;;;8.00;1.00;;;;;;5149453;27;20967;-73
2023/11/10 04:42:25;;;;;;;4.07;2.10;;;8.00;1.00;;;;;;5131592;27;20457;-76
2023/11/10 04:44:53;;;;;;;3.33;1.97;;;8.00;1.00;;;;;;5128542;27;20514;-72
2023/11/10 04:47:20;;;;;;;2.30;1.87;;;8.10;1.00;;;;;;5126253;27;20981;-71
2023/11/10 04:49:47;;;;;;;5.03;2.50;;;8.10;1.00;;;;;;5126947;27;20452;-71
2023/11/10 04:52:15;;;;;;;2.40;2.20;;;8.20;1.00;;;;;;5130317;27;20927;-71
2023/11/10 04:54:45;;;;;;;3.43;1.90;;;8.10;1.00;;;;;;5130453;27;20531;-71
2023/11/10 04:57:12;;;;;;;2.57;2.37;;;8.20;1.00;;;;;;5127489;27;20457;-71
2023/11/10 04:59:39;;;;;;;3.90;2.20;;;8.30;1.00;;;;;;5129310;27;20531;-71
2023/11/10 05:02:09;;;;;;;3.00;2.07;;;8.40;1.00;;;;;;5146345;27;20452;-72
2023/11/10 05:04:39;;;;;;;7.37;2.20;;;8.50;1.00;;;;;;5125968;27;20545;-74
2023/11/10 05:07:08;;;;;;;6.77;2.80;;;8.50;1.00;;;;;;5124286;27;20982;-73
2023/11/10 05:09:35;;;;;;;2.63;2.10;;;8.60;1.00;;;;;;5122905;27;20488;-72
2023/11/10 05:12:02;;;;;;;2.60;2.10;;;8.70;1.00;;;;;;5124263;27;20532;-72
2023/11/10 05:14:32;;;;;;;3.03;1.90;;;8.70;1.00;;;;;;5125724;27;20578;-72
2023/11/10 05:17:00;;;;;;;2.40;2.17;;;8.70;1.00;;;;;;5125331;27;21236;-76
2023/11/10 05:19:28;;;;;;;5.10;2.60;;;8.70;1.00;;;;;;5135720;27;21296;-75
2023/11/10 05:21:55;;;;;;;2.57;2.37;;;8.70;1.00;;;;;;5129889;27;20472;-76
2023/11/10 05:24:23;;;;;;;3.77;2.80;;;8.70;1.00;;;;;;5144766;27;20547;-76
2023/11/10 05:26:50;;;;;;;3.70;2.17;;;8.70;1.00;;;;;;5146492;27;20450;-77
2023/11/10 05:29:17;;;;;;;2.50;1.70;;;8.80;1.00;;;;;;5147719;27;20568;-73
2023/11/10 05:31:45;;;;;;;2.47;2.20;;;8.80;1.00;;;;;;5136200;27;20524;-78
2023/11/10 05:34:13;;;;;;;3.50;2.10;;;8.80;1.00;;;;;;5146447;27;20587;-76
2023/11/10 05:36:41;;;;;;;3.37;2.40;;;8.90;1.00;;;;;;5136694;27;20472;-76
2023/11/10 05:39:11;;;;;;;4.70;2.40;;;8.90;1.00;;;;;;5128806;27;20548;-78
2023/11/10 05:41:42;;;;;;;3.00;2.40;;;8.80;1.00;;;;;;5124422;27;20486;-73
2023/11/10 05:44:09;;;;;;;2.50;2.20;;;8.90;1.00;;;;;;5125471;27;20461;-77
2023/11/10 05:46:36;;;;;;;5.20;2.53;;;8.80;1.00;;;;;;5121533;27;20488;-76
2023/11/10 05:49:03;;;;;;;8.87;8.00;;;8.80;1.00;;;;;;5120323;27;20461;-76
2023/11/10 05:51:30;;;;;;;4.13;2.27;;;8.80;1.00;;;;;;5122334;27;20531;-77
2023/11/10 05:53:59;;;;;;;2.77;2.07;;;8.70;1.00;;;;;;5125801;27;21096;-77
2023/11/10 05:56:26;;;;;;;2.30;2.10;;;8.80;1.00;;;;;;5131012;27;20471;-76
2023/11/10 05:58:53;;;;;;;3.97;2.93;;;8.70;1.00;;;;;;5147637;27;20961;-78
2023/11/10 06:01:24;;;;;;;2.50;2.20;;;8.70;1.00;;;;;;5136001;27;22667;-78
2023/11/10 06:03:51;;;;;;;2.73;2.27;;;8.70;1.00;;;;;;5135625;27;20440;-79
2023/11/10 06:06:19;;;;;;;2.30;2.10;;;8.60;1.00;;;;;;5124248;27;20460;-79
2023/11/10 06:08:45;;;;;;;2.90;2.60;;;8.60;1.00;;;;;;5145119;27;20519;-73
2023/11/10 06:11:25;;;;;;;3.07;2.20;;;8.60;1.00;;;;;;5144408;27;20524;-79
2023/11/10 06:13:53;;;;;;;4.90;1.93;;;8.70;1.00;;;;;;5120232;27;20464;-79
2023/11/10 06:16:20;;;;;;;3.70;2.70;;;8.80;1.00;;;;;;5126436;27;20467;-78
2023/11/10 06:18:47;;;;;;;5.43;2.30;;;8.80;1.00;;;;;;5120642;27;20517;-72
2023/11/10 06:21:14;;;;;;;3.10;2.50;;;8.90;1.00;;;;;;5125566;27;20548;-78
2023/11/10 06:23:41;;;;;;;2.70;2.30;;;8.90;1.00;;;;;;5131786;27;20451;-79
2023/11/10 06:26:10;;;;;;;3.00;2.20;;;8.90;1.00;;;;;;5145824;27;20443;-72
2023/11/10 06:28:38;;;;;;;2.33;2.00;;;8.90;1.00;;;;;;5143420;27;20952;-74
2023/11/10 06:31:05;;;;;;;3.67;2.70;;;8.90;1.00;;;;;;5143357;27;20538;-71
2023/11/10 06:33:32;;;;;;;4.50;2.30;;;8.90;1.00;;;;;;5133526;27;20532;-72
2023/11/10 06:36:00;;;;;;;2.30;2.13;;;8.90;1.00;;;;;;5125337;27;20457;-74
2023/11/10 06:38:27;;;;;;;2.53;1.87;;;8.90;1.00;;;;;;5113593;27;20475;-71
2023/11/10 06:40:54;;;;;;;2.53;1.83;;;9.00;1.00;;;;;;5125719;27;20942;-70
2023/11/10 06:43:21;;;;;;;5.73;4.97;;;9.00;1.00;;;;;;5122767;27;20955;-71
2023/11/10 06:45:50;;;;;;;2.97;2.33;;;9.10;1.00;;;;;;5122860;27;21307;-69
2023/11/10 06:48:17;;;;;;;2.93;2.23;;;9.10;1.00;;;;;;5123230;27;20485;-73
2023/11/10 06:50:44;;;;;;;3.33;2.00;;;9.20;1.00;;;;;;5128007;27;20454;-70
2023/11/10 06:53:12;;;;;;;3.70;2.10;;;9.30;1.00;;;;;;5146265;27;20479;-71
2023/11/10 06:55:40;;;;;;;3.17;2.87;;;9.30;1.00;;;;;;5130646;27;20565;-69
2023/11/10 06:58:07;;;;;;;1.90;1.67;;;9.30;1.00;;;;;;5144594;27;20467;-69
2023/11/10 07:00:36;;;;;;;4.30;2.10;;;9.40;1.00;;;;;;5128338;27;20533;-71
2023/11/10 07:03:12;;;;;;;6.83;1.70;;;9.50;1.00;;;;;;5128527;27;20496;-70
2023/11/10 07:05:39;;;;;;;2.40;1.87;;;9.40;1.00;;;;;;5126697;27;20629;-72
2023/11/10 07:08:09;;;;;;;2.03;1.80;;;9.50;1.00;;;;;;5127608;27;20464;-70
2023/11/10 07:10:36;;;;;;;2.40;2.20;;;9.60;1.00;;;;;;5140558;27;20536;-69
2023/11/10 07:13:04;;;;;;;2.80;2.03;;;9.50;1.00;;;;;;5143588;27;20475;-72
2023/11/10 07:15:31;;;;;;;6.40;2.03;;;9.60;1.00;;;;;;5142071;27;21026;-69
2023/11/10 07:18:02;;;;;;;7.27;3.00;;;9.60;1.00;;;;;;5127538;27;20662;-72
2023/11/10 07:20:31;;;;;;;2.73;2.20;;;9.60;1.00;;;;;;5141108;27;20971;-71
2023/11/10 07:22:59;;;;;;;2.60;2.20;;;9.60;1.00;;;;;;5150852;27;20558;-70
2023/11/10 07:25:26;;;;;;;3.53;2.00;;;9.60;1.00;;;;;;5131017;27;20421;-71
2023/11/10 07:27:54;;;;;;;2.90;2.30;;;9.60;1.00;;;;;;5127613;27;20465;-73
2023/11/10 07:30:23;;;;;;;2.63;1.80;;;9.70;1.00;;;;;;5125888;27;21179;-71
2023/11/10 07:32:51;;;;;;;4.67;2.23;;;9.80;1.00;;;;;;5139941;27;20582;-71
2023/11/10 07:35:18;;;;;;;2.60;1.83;;;9.80;1.00;;;;;;5142173;27;21204;-71
2023/11/10 07:37:46;;;;;;;2.63;2.00;;;9.80;1.00;;;;;;5149741;27;20570;-76
2023/11/10 07:40:14;;;;;;;2.93;1.80;;;9.80;1.00;;;;;;5144784;27;20448;-74
2023/11/10 07:42:43;;;;;;;2.70;2.30;;;9.80;1.00;;;;;;5135873;27;20468;-77
2023/11/10 07:45:14;;;;;;;4.23;2.00;;;9.90;1.00;;;;;;5144490;27;20480;-72
2023/11/10 07:47:42;;;;;;;2.57;2.27;;;9.90;1.00;;;;;;5149603;27;20496;-75
2023/11/10 07:50:10;;;;;;;2.60;1.97;;;9.90;1.00;;;;;;5135004;27;20960;-76
2023/11/10 07:52:39;;;;;;;3.73;2.50;;;10.00;1.00;;;;;;5130264;27;20471;-77
2023/11/10 07:55:09;;;;;;;5.03;4.40;;;10.10;1.00;;;;;;5145812;27;20442;-79
2023/11/10 07:57:36;;;;;;;1.70;1.60;;;10.10;1.00;;;;;;5131921;27;20452;-76
2023/11/10 08:00:06;;;;;;;2.10;1.90;;;10.20;1.00;;;;;;5137986;27;20464;-73
2023/11/10 08:02:34;;;;;;;3.47;1.83;;;10.20;1.00;;;;;;5147647;27;21431;-77
2023/11/10 08:05:03;;;;;;;2.10;1.37;;;10.30;1.00;;;;;;5142026;27;20463;-75
2023/11/10 08:07:30;;;;;;;1.77;1.40;;;10.20;1.00;;;;;;5156779;27;20559;-77
2023/11/10 08:09:57;;;;;;;5.90;1.37;;;10.20;1.00;;;;;;5146165;27;20481;-74
2023/11/10 08:12:26;;;;;;;3.77;1.30;;;10.30;1.00;;;;;;5128287;27;20544;-73
2023/11/10 08:14:55;;;;;;;2.97;2.67;;;10.60;1.00;;;;;;5132301;27;20463;-77
2023/11/10 08:17:23;;;;;;;2.07;1.47;;;10.90;1.00;;;;;;5148852;27;21095;-77
2023/11/10 08:19:50;;;;;;;1.97;1.10;;;11.10;1.00;;;;;;5141112;27;20980;-78
2023/11/10 08:22:17;;;;;;;3.77;1.33;;;11.40;1.00;;;;;;5153345;27;20468;-74
2023/11/10 08:24:44;;;;;;;3.90;2.30;;;11.50;1.00;;;;;;5151887;27;20493;-81
2023/11/10 08:27:12;;;;;;;3.37;2.20;;;11.60;1.00;;;;;;5138030;27;20487;-74
2023/11/10 08:29:44;;;;;;;2.37;1.40;;;11.40;1.00;;;;;;5117023;27;20961;-82
2023/11/10 08:32:11;;;;;;;2.70;1.70;;;11.30;1.00;;;;;;5136916;27;20468;-80
2023/11/10 08:34:38;;;;;;;4.93;1.43;;;11.40;1.00;;;;;;5131164;27;20967;-77
2023/11/10 08:37:07;;;;;;;2.03;1.20;;;11.20;1.00;;;;;;5145467;27;20452;-79
2023/11/10 08:39:34;;;;;;;1.80;1.47;;;11.20;1.00;;;;;;5149155;27;21199;-73
2023/11/10 08:42:03;;;;;;;3.13;1.83;;;11.30;1.00;;;;;;5147784;27;21090;-80
2023/11/10 08:44:30;;;;;;;1.40;1.10;;;11.40;1.00;;;;;;5147815;27;20456;-79
2023/11/10 08:46:58;;;;;;;1.73;1.40;;;11.40;1.00;;;;;;5149600;27;20433;-75
2023/11/10 08:49:25;;;;;;;3.90;1.70;;;11.60;1.00;;;;;;5148585;27;20463;-75
2023/11/10 08:51:52;;;;;;;3.40;1.37;;;11.70;1.00;;;;;;5147851;27;21246;-77
2023/11/10 08:54:19;;;;;;;6.00;1.77;;;11.80;1.00;;;;;;5140746;27;20546;-76
2023/11/10 08:56:46;;;;;;;2.40;1.37;;;12.00;1.00;;;;;;5148464;27;20517;-76
2023/11/10 08:59:13;;;;;;;3.33;1.47;;;12.10;1.00;;;;;;5144838;27;22562;-80
2023/11/10 09:01:40;;;;;;;1.97;1.50;;;12.10;1.00;;;;;;5128798;27;20519;-78
2023/11/10 09:04:10;;;;;;;1.80;1.00;;;12.20;1.00;;;;;;5128814;27;20964;-76
2023/11/10 09:06:36;;;;;;;1.67;1.10;;;12.20;1.00;;;;;;5129771;27;20462;-75
2023/11/10 09:09:04;;;;;;;2.70;1.23;;;12.20;1.00;;;;;;5145064;27;20466;-78
2023/11/10 09:11:31;;;;;;;3.40;1.20;;;12.10;1.00;;;;;;5152734;27;20441;-77
2023/11/10 09:14:01;;;;;;;2.90;1.40;;;12.10;1.00;;;;;;5144988;27;20549;-76
2023/11/10 09:16:28;;;;;;;1.83;1.37;;;12.10;1.00;;;;;;5128602;27;20903;-79
2023/11/10 09:18:55;;;;;;;2.95;1.40;;;12.10;1.00;;;;;;5128401;27;20431;-77
2023/11/10 09:21:23;;;;;;;1.93;1.27;;;12.10;1.00;;;;;;5133208;27;20486;-74
2023/11/10 09:23:51;;;;;;;2.70;1.57;;;12.20;1.00;;;;;;5137029;27;20478;-76
2023/11/10 09:26:18;;;;;;;4.23;1.73;;;12.50;1.00;;;;;;5144819;27;20465;-74
2023/11/10 09:28:47;;;;;;;2.00;1.20;;;13.00;1.00;;;;;;5147928;27;20451;-75
2023/11/10 09:31:15;;;;;;;2.40;1.63;;;13.10;1.00;;;;;;5129492;27;20470;-79
2023/11/10 09:33:41;;;;;;;2.80;1.83;;;13.00;1.00;;;;;;5139934;27;21213;-78
2023/11/10 09:36:09;;;;;;;2.10;1.90;;;13.10;1.00;;;;;;5129995;27;20575;-76
2023/11/10 09:38:38;;;;;;;1.63;1.00;;;13.10;1.00;;;;;;5127979;27;20551;-80
2023/11/10 09:41:14;;;;;;;1.50;1.30;;;12.90;1.00;;;;;;5129774;27;20440;-80
2023/11/10 09:43:42;;;;;;;1.57;1.40;;;12.90;1.00;;;;;;5139486;27;20477;-77
2023/11/10 09:46:11;;;;;;;2.90;1.10;;;12.90;1.00;;;;;;5130574;27;20454;-79
2023/11/10 09:48:39;;;;;;;1.97;1.40;;;13.00;1.00;;;;;;5145987;27;21200;-78
2023/11/10 09:51:06;;;;;;;3.03;1.23;;;13.20;1.00;;;;;;5128525;27;20508;-78
2023/11/10 09:53:34;;;;;;;1.33;1.07;;;13.20;1.00;;;;;;5131542;27;20450;-74
2023/11/10 09:56:02;;;;;;;1.70;1.43;;;13.10;1.00;;;;;;5130044;27;20461;-75
2023/11/10 09:58:30;;;;;;;1.40;1.27;;;12.80;1.00;;;;;;5129488;27;20436;-81
2023/11/10 10:00:57;;;;;;;1.90;1.40;;;12.70;1.00;;;;;;5126894;27;20516;-79
2023/11/10 10:03:24;;;;;;;2.00;1.40;;;12.60;1.00;;;;;;5128434;27;20449;-79
2023/11/10 10:05:52;;;;;;;1.70;1.53;;;12.50;1.00;;;;;;5127521;27;20455;-77
2023/11/10 10:08:19;;;;;;;2.30;1.23;;;12.60;1.00;;;;;;5127529;27;20507;-77
2023/11/10 10:10:50;;;;;;;1.77;1.00;;;12.60;1.00;;;;;;5126746;27;20999;-78
2023/11/10 10:13:19;;;;;;;1.20;1.10;;;12.40;1.00;;;;;;5129847;27;21245;-76
2023/11/10 10:15:46;;;;;;;3.77;1.73;;;12.30;1.00;;;;;;5150159;27;20951;-79
2023/11/10 10:18:16;;;;;;;3.60;1.33;;;12.40;1.00;;;;;;5132248;27;20459;-77
2023/11/10 10:20:43;;;;;;;3.40;1.70;;;12.50;1.00;;;;;;5131608;27;21272;-77
2023/11/10 10:23:11;;;;;;;1.57;1.47;;;12.70;1.00;;;;;;5139212;27;21063;-79
2023/11/10 10:25:39;;;;;;;1.50;1.20;;;12.70;1.00;;;;;;5141361;27;21873;-76
2023/11/10 10:28:07;;;;;;;1.77;1.20;;;12.70;1.00;;;;;;5129338;27;20470;-78
2023/11/10 10:30:36;;;;;;;4.10;1.80;;;12.70;1.00;;;;;;5134531;27;21219;-78
2023/11/10 10:33:05;;;;;;;2.10;1.30;;;12.60;1.00;;;;;;5132392;27;20452;-76
2023/11/10 10:35:32;;;;;;;2.37;1.53;;;12.60;1.00;;;;;;5131874;27;20468;-75
2023/11/10 10:38:06;;;;;;;2.40;1.50;;;12.60;1.00;;;;;;5135114;27;20507;-78
2023/11/10 10:40:36;;;;;;;1.40;1.17;;;12.60;1.00;;;;;;5132277;27;20474;-78
2023/11/10 10:43:03;;;;;;;1.63;1.37;;;12.50;1.00;;;;;;5147496;27;20452;-76
2023/11/10 10:45:32;;;;;;;1.83;1.63;;;12.30;1.00;;;;;;5139143;27;20440;-79
2023/11/10 10:48:03;;;;;;;4.50;1.37;;;12.20;1.00;;;;;;5129791;27;20585;-74
2023/11/10 10:50:32;;;;;;;1.80;1.60;;;12.10;1.00;;;;;;5142252;27;20560;-80
2023/11/10 10:53:00;;;;;;;1.83;1.73;;;12.00;1.00;;;;;;5153813;27;20955;-78
2023/11/10 10:55:29;;;;;;;5.23;1.47;;;11.80;1.00;;;;;;5151964;27;20912;-77
2023/11/10 10:57:58;;;;;;;3.67;1.50;;;11.80;1.00;;;;;;5145658;27;21407;-79
2023/11/10 11:00:25;;;;;;;5.13;1.97;;;11.80;1.00;;;;;;5139715;27;21018;-78
2023/11/10 11:02:58;;;;;;;1.67;1.20;;;11.90;1.00;;;;;;5130122;27;20469;-80
2023/11/10 11:05:43;;;;;;;2.77;1.40;;;12.00;1.00;;;;;;5137273;27;21117;-75
2023/11/10 11:08:23;;;;;;;3.30;1.80;;;11.90;1.00;;;;;;5136664;27;20459;-78
2023/11/10 11:11:15;;;;;;;3.03;1.40;;;12.00;1.00;;;;;;5144188;27;21617;-78
2023/11/10 11:14:10;;;;;;;3.00;1.60;;;12.10;1.00;;;;;;5130553;27;20477;-79
2023/11/10 11:16:52;;;;;;;1.47;1.33;;;12.10;1.00;;;;;;5129490;27;20470;-81
2023/11/10 11:19:27;;;;;;;2.97;1.30;;;12.10;1.00;;;;;;5127508;27;20561;-75
2023/11/10 11:21:56;;;;;;;2.43;1.40;;;12.20;1.00;;;;;;5132512;27;20468;-75
2023/11/10 11:24:24;;;;;;;1.37;1.00;;;12.20;1.00;;;;;;5128760;27;20434;-77
2023/11/10 11:26:56;;;;;;;1.70;1.30;;;12.20;1.00;;;;;;5148417;27;20456;-77
2023/11/10 11:29:23;;;;;;;1.37;1.03;;;12.20;1.00;;;;;;5140170;27;21908;-78
2023/11/10 11:31:50;;;;;;;1.30;1.20;;;12.10;1.00;;;;;;5130001;27;20464;-77
2023/11/10 11:34:19;;;;;;;5.73;1.93;;;12.20;1.00;;;;;;5131637;27;20433;-75
2023/11/10 11:36:47;;;;;;;4.80;1.63;;;12.20;1.00;;;;;;5149103;27;20460;-77
2023/11/10 11:39:19;;;;;;;1.23;1.13;;;12.40;1.00;;;;;;5146547;27;20466;-77
2023/11/10 11:41:50;;;;;;;1.20;1.10;;;12.50;1.00;;;;;;5143465;27;21218;-79
2023/11/10 11:44:30;;;;;;;1.90;1.30;;;12.50;1.00;;;;;;5151077;27;20511;-77
2023/11/10 11:46:58;;;;;;;2.10;1.63;;;12.50;1.00;;;;;;5150486;27;20452;-77
2023/11/10 11:49:27;;;;;;;2.53;1.50;;;12.40;1.00;;;;;;5141656;27;21225;-77
2023/11/10 11:51:56;;;;;;;1.47;1.17;;;12.20;1.00;;;;;;5144635;27;20995;-78
2023/11/10 11:54:27;;;;;;;2.10;1.43;;;12.10;1.00;;;;;;5130204;27;20457;-76
2023/11/10 11:56:58;;;;;;;1.90;1.40;;;12.10;1.00;;;;;;5126038;27;20445;-76
2023/11/10 11:59:25;;;;;;;3.00;1.60;;;12.10;1.00;;;;;;5146988;27;20448;-78
2023/11/10 12:01:53;;;;;;;4.87;1.70;;;12.10;1.00;;;;;;5112064;27;20430;-74
2023/11/10 12:04:20;;;;;;;1.70;1.60;;;12.10;1.00;;;;;;5137260;27;20943;-78
2023/11/10 12:06:49;;;;;;;2.50;1.70;;;12.00;1.00;;;;;;5137165;27;20453;-76
2023/11/10 12:09:18;;;;;;;2.00;1.60;;;12.00;1.00;;;;;;5131698;27;20534;-78
2023/11/10 12:11:47;;;;;;;2.07;1.20;;;12.00;1.00;;;;;;5150915;27;20902;-78
2023/11/10 12:14:16;;;;;;;2.00;1.53;;;12.00;1.00;;;;;;5134982;27;20512;-79
2023/11/10 12:16:45;;;;;;;3.77;1.40;;;12.10;1.00;;;;;;5149870;27;20456;-71
2023/11/10 12:19:15;;;;;;;1.50;1.40;;;12.20;1.00;;;;;;5144590;27;20453;-71
2023/11/10 12:21:42;;;;;;;2.03;1.30;;;12.40;1.00;;;;;;5137455;27;20487;-73
2023/11/10 12:24:10;;;;;;;3.00;1.77;;;12.50;1.00;;;;;;5146054;27;20578;-69
2023/11/10 12:26:39;;;;;;;2.37;1.60;;;12.60;1.00;;;;;;5146341;27;20486;-73
2023/11/10 12:29:09;;;;;;;3.10;1.67;;;12.60;1.00;;;;;;5146760;27;20513;-69
2023/11/10 12:31:36;;;;;;;2.63;1.90;;;12.60;1.00;;;;;;5128864;27;20472;-71
2023/11/10 12:34:04;;;;;;;3.77;2.10;;;12.40;1.00;;;;;;5146976;27;22421;-69
2023/11/10 12:36:32;;;;;;;6.20;1.90;;;12.30;1.00;;;;;;5130963;27;20489;-69
2023/11/10 12:39:00;;;;;;;2.63;1.83;;;12.10;1.00;;;;;;5129487;27;20459;-69
2023/11/10 12:41:29;;;;;;;3.10;1.30;;;12.10;1.00;;;;;;5127989;27;20558;-71
2023/11/10 12:43:57;;;;;;;2.47;1.50;;;12.10;1.00;;;;;;5126375;27;20533;-72
2023/11/10 12:46:25;;;;;;;4.40;1.40;;;12.10;1.00;;;;;;5121462;27;20460;-71
2023/11/10 12:48:54;;;;;;;1.53;1.13;;;12.00;1.00;;;;;;5129380;27;20462;-71
2023/11/10 12:51:23;;;;;;;4.00;1.60;;;11.80;1.00;;;;;;5126762;27;20588;-71
2023/11/10 12:54:02;;;;;;;3.93;1.77;;;11.70;1.00;;;;;;5126506;27;20535;-69
2023/11/10 12:56:30;;;;;;;1.43;1.10;;;11.60;1.00;;;;;;5126930;27;20970;-69
2023/11/10 12:58:57;;;;;;;1.53;0.90;;;11.60;1.00;;;;;;5126911;27;20486;-70
2023/11/10 13:01:25;;;;;;;1.83;1.30;;;11.80;1.00;;;;;;5122088;27;20565;-69
2023/11/10 13:03:52;;;;;;;2.20;1.60;;;11.90;1.00;;;;;;5128014;27;20448;-71
2023/11/10 13:06:19;;;;;;;2.33;1.40;;;12.00;1.00;;;;;;5137770;27;20804;-71
2023/11/10 13:08:46;;;;;;;5.80;1.60;;;12.00;1.00;;;;;;5144040;27;20549;-71